aviador You're here:

KCGS Decoded Metar

COLLEGE PARK in MD, USA
Report Time2017-06-27 05:12:00
UTC Time2017-06-27 05:22:29
Flight Rules vfr VFR
Wind310° at 05 kt
W.Decomp.*RWY 33: 4.9 kt HW 0.8 kt LCW
W.Rank310° ranks 2
Current wind is below 310° avg. (7.4)
Visibility9999 m
Phenomena:N/A
Clouds:Scattered 080 Hf
Scattered 100 Hf
Scattered 120 Hf
Expected CloudBase > 4,800 ft AGL from Temp-Dew spread
CeilingNone
Temp23°C (ISA +8)
Dew Point11°C (47% RH)
AAT21.5°C
QNH1016 hPa
Density Alt1,066 ft
Elevation49 ft
Report Wrong Elevation
Raw Report
METAR KCGS 270512Z AUTO 31005KT 10SM SCT080 SCT100 SCT120 23/11 A2999
RMK AO1 T02270105=

Extra information for KCGS:More info

Metar Taf Metar & Taf Last 4 Metars F.Rules Stats Wind Profile Meteogram Temp Stats Airport Information Weather charts Add Link Nearby VenuesMetar ALERT Operation Metar Decoded Social comments

AIRNAV info for KCGS